createdAt,value
2022-11-26T00:00:03.597Z,24.00
2022-11-26T00:01:03.602Z,24.00
2022-11-26T00:02:02.745Z,20.70
2022-11-26T00:03:02.905Z,20.70
2022-11-26T00:04:02.408Z,20.70
2022-11-26T00:05:02.805Z,20.70
2022-11-26T00:06:02.646Z,20.70
2022-11-26T00:07:03.562Z,20.80
2022-11-26T00:08:03.596Z,20.80
2022-11-26T00:09:03.544Z,20.80
2022-11-26T00:10:03.531Z,20.80
2022-11-26T00:11:02.987Z,20.80
2022-11-26T00:12:02.551Z,19.80
2022-11-26T00:13:02.970Z,19.80
2022-11-26T00:14:03.062Z,19.80
2022-11-26T00:15:02.989Z,19.80
2022-11-26T00:16:02.955Z,19.80
2022-11-26T00:17:03.133Z,19.80
2022-11-26T00:18:02.832Z,19.80
2022-11-26T00:19:02.601Z,19.80
2022-11-26T00:20:02.841Z,19.80
2022-11-26T00:21:02.631Z,19.80
2022-11-26T00:22:02.639Z,20.90
2022-11-26T00:23:02.652Z,20.90
2022-11-26T00:24:02.589Z,20.90
2022-11-26T00:25:02.713Z,20.90
2022-11-26T00:26:02.642Z,20.90
2022-11-26T00:27:02.757Z,22.50
2022-11-26T00:28:02.341Z,22.50
2022-11-26T00:29:02.676Z,22.50
2022-11-26T00:30:02.792Z,22.50
2022-11-26T00:31:02.349Z,22.50
2022-11-26T00:32:03.023Z,17.90
2022-11-26T00:33:03.316Z,17.90
2022-11-26T00:34:03.221Z,17.90
2022-11-26T00:35:03.022Z,17.90
2022-11-26T00:36:02.851Z,17.90
2022-11-26T00:37:03.056Z,20.30
2022-11-26T00:38:03.173Z,20.30
2022-11-26T00:39:03.335Z,20.30
2022-11-26T00:40:03.519Z,20.30
2022-11-26T00:41:03.214Z,20.30
2022-11-26T00:42:03.560Z,18.20
2022-11-26T00:43:03.119Z,18.20
2022-11-26T00:44:03.021Z,18.20
2022-11-26T00:45:02.724Z,18.20
2022-11-26T00:46:03.402Z,18.20
2022-11-26T00:47:03.254Z,17.90
2022-11-26T00:48:03.133Z,17.90
2022-11-26T00:49:03.493Z,17.90
2022-11-26T00:50:03.108Z,17.90
2022-11-26T00:51:03.366Z,17.90
2022-11-26T00:52:03.232Z,16.50
2022-11-26T00:53:03.494Z,16.50
2022-11-26T00:54:03.194Z,16.50
2022-11-26T00:55:03.548Z,16.50
2022-11-26T00:56:03.631Z,16.50
2022-11-26T00:57:02.912Z,19.80
2022-11-26T00:58:02.890Z,19.80
2022-11-26T00:59:02.797Z,19.80
2022-11-26T01:00:02.304Z,19.80
2022-11-26T01:01:02.885Z,19.80
2022-11-26T01:02:03.616Z,14.30
2022-11-26T01:03:03.679Z,14.30
2022-11-26T01:04:03.400Z,14.30
2022-11-26T01:05:03.523Z,14.30
2022-11-26T01:06:03.087Z,14.30
2022-11-26T01:07:02.911Z,19.00
2022-11-26T01:08:02.456Z,19.00
2022-11-26T01:09:02.884Z,19.00
2022-11-26T01:10:03.065Z,19.00
2022-11-26T01:11:03.063Z,19.00
2022-11-26T01:12:02.322Z,14.70
2022-11-26T01:13:02.342Z,14.70
2022-11-26T01:14:02.169Z,14.70
2022-11-26T01:15:02.646Z,14.70
2022-11-26T01:16:02.170Z,14.70
2022-11-26T01:17:02.988Z,12.90
2022-11-26T01:18:03.038Z,12.90
2022-11-26T01:19:02.443Z,12.90
2022-11-26T01:20:02.591Z,12.90
2022-11-26T01:21:03.109Z,12.90
2022-11-26T01:22:02.398Z,14.10
2022-11-26T01:23:02.522Z,14.10
2022-11-26T01:24:02.099Z,14.10
2022-11-26T01:25:02.499Z,14.10
2022-11-26T01:26:06.376Z,14.10
2022-11-26T01:27:03.013Z,14.80
2022-11-26T01:28:02.746Z,14.80
2022-11-26T01:29:03.084Z,14.80
2022-11-26T01:30:02.798Z,14.80
2022-11-26T01:31:02.778Z,14.80
2022-11-26T01:32:02.459Z,13.50
2022-11-26T01:33:02.542Z,13.50
2022-11-26T01:34:02.336Z,13.50
2022-11-26T01:35:02.385Z,13.50
2022-11-26T01:36:02.178Z,13.50
2022-11-26T01:37:02.846Z,16.00
2022-11-26T01:38:02.727Z,16.00
2022-11-26T01:39:02.767Z,16.00
2022-11-26T01:40:02.869Z,16.00
2022-11-26T01:41:02.400Z,16.00
2022-11-26T01:42:02.725Z,15.70
2022-11-26T01:43:02.544Z,15.70
2022-11-26T01:44:02.972Z,15.70
2022-11-26T01:45:03.124Z,15.70
2022-11-26T01:46:02.794Z,15.70
2022-11-26T01:47:03.374Z,16.10
2022-11-26T01:48:03.336Z,16.10
2022-11-26T01:49:03.540Z,16.10
2022-11-26T01:50:03.197Z,16.10
2022-11-26T01:51:02.985Z,16.10
2022-11-26T01:52:02.533Z,15.70
2022-11-26T01:53:02.631Z,15.70
2022-11-26T01:54:02.623Z,15.70
2022-11-26T01:55:02.571Z,15.70
2022-11-26T01:56:02.193Z,15.70
2022-11-26T01:57:02.510Z,12.20
2022-11-26T01:58:02.884Z,12.20
2022-11-26T01:59:02.564Z,12.20
2022-11-26T02:00:02.347Z,12.20
2022-11-26T02:01:02.306Z,12.20
2022-11-26T02:02:02.898Z,14.60
2022-11-26T02:03:02.584Z,14.60
2022-11-26T02:04:03.100Z,14.60
2022-11-26T02:05:02.899Z,14.60
2022-11-26T02:06:03.166Z,14.60
2022-11-26T02:07:03.327Z,11.10
2022-11-26T02:08:02.991Z,11.10
2022-11-26T02:09:03.469Z,11.10
2022-11-26T02:10:03.383Z,11.10
2022-11-26T02:11:02.968Z,11.10
2022-11-26T02:12:03.575Z,14.70
2022-11-26T02:13:02.987Z,14.70
2022-11-26T02:14:03.521Z,14.70
2022-11-26T02:15:03.245Z,14.70
2022-11-26T02:16:03.656Z,14.70
2022-11-26T02:17:02.819Z,14.50
2022-11-26T02:18:02.649Z,14.50
2022-11-26T02:19:02.571Z,14.50
2022-11-26T02:20:03.008Z,14.50
2022-11-26T02:21:03.010Z,14.50
2022-11-26T02:22:03.249Z,14.90
2022-11-26T02:23:02.899Z,14.90
2022-11-26T02:24:02.831Z,14.90
2022-11-26T02:25:03.003Z,14.90
2022-11-26T02:26:02.840Z,14.90
2022-11-26T02:27:03.209Z,14.90
2022-11-26T02:28:02.983Z,14.90
2022-11-26T02:29:03.115Z,14.90
2022-11-26T02:30:03.321Z,14.90
2022-11-26T02:31:03.147Z,14.90
2022-11-26T02:32:02.720Z,14.10
2022-11-26T02:33:02.249Z,14.10
2022-11-26T02:34:02.224Z,14.10
2022-11-26T02:35:02.640Z,14.10
2022-11-26T02:36:02.654Z,14.10
2022-11-26T02:37:02.711Z,14.50
2022-11-26T02:38:02.566Z,14.50
2022-11-26T02:39:02.846Z,14.50
2022-11-26T02:40:02.406Z,14.50
2022-11-26T02:41:02.395Z,14.50
2022-11-26T02:42:02.048Z,17.20
2022-11-26T02:43:02.502Z,17.20
2022-11-26T02:44:02.510Z,17.20
2022-11-26T02:45:02.320Z,17.20
2022-11-26T02:46:02.110Z,17.20
2022-11-26T02:47:02.652Z,17.20
2022-11-26T02:48:02.689Z,17.20
2022-11-26T02:49:02.603Z,17.20
2022-11-26T02:50:02.894Z,17.20
2022-11-26T02:51:02.521Z,17.20
2022-11-26T02:52:02.041Z,18.40
2022-11-26T02:53:02.476Z,18.40
2022-11-26T02:54:02.281Z,18.40
2022-11-26T02:55:02.632Z,18.40
2022-11-26T02:56:02.319Z,18.40
2022-11-26T02:57:02.238Z,19.20
2022-11-26T02:58:02.233Z,19.20
2022-11-26T02:59:02.225Z,19.20
2022-11-26T03:00:02.736Z,19.20
2022-11-26T03:01:02.910Z,19.20
2022-11-26T03:02:01.876Z,14.50
2022-11-26T03:03:01.778Z,14.50
2022-11-26T03:04:01.556Z,14.50
2022-11-26T03:05:02.111Z,14.50
2022-11-26T03:06:02.026Z,14.50
2022-11-26T03:07:02.097Z,16.70
2022-11-26T03:08:01.981Z,16.70
2022-11-26T03:09:01.799Z,16.70
2022-11-26T03:10:02.305Z,16.70
2022-11-26T03:11:02.370Z,16.70
2022-11-26T03:12:02.248Z,15.80
2022-11-26T03:13:02.166Z,15.80
2022-11-26T03:14:02.441Z,15.80
2022-11-26T03:15:02.125Z,15.80
2022-11-26T03:16:02.601Z,15.80
2022-11-26T03:17:01.667Z,13.60
2022-11-26T03:18:02.226Z,13.60
2022-11-26T03:19:02.133Z,13.60
2022-11-26T03:20:02.187Z,13.60
2022-11-26T03:21:01.587Z,13.60
2022-11-26T03:22:02.006Z,13.60
2022-11-26T03:23:02.034Z,13.60
2022-11-26T03:24:02.048Z,13.60
2022-11-26T03:25:01.933Z,13.60
2022-11-26T03:26:02.436Z,13.60
2022-11-26T03:27:02.606Z,13.40
2022-11-26T03:28:02.451Z,13.40
2022-11-26T03:29:02.148Z,13.40
2022-11-26T03:30:02.069Z,13.40
2022-11-26T03:31:02.424Z,13.40
2022-11-26T03:32:02.142Z,15.40
2022-11-26T03:33:02.255Z,15.40
2022-11-26T03:34:01.901Z,15.40
2022-11-26T03:35:01.860Z,15.40
2022-11-26T03:36:01.662Z,15.40
2022-11-26T03:37:02.131Z,18.90
2022-11-26T03:38:02.307Z,18.90
2022-11-26T03:39:02.040Z,18.90
2022-11-26T03:40:02.297Z,18.90
2022-11-26T03:41:02.661Z,18.90
2022-11-26T03:42:02.155Z,15.10
2022-11-26T03:43:02.025Z,15.10
2022-11-26T03:44:02.258Z,15.10
2022-11-26T03:45:02.308Z,15.10
2022-11-26T03:46:02.058Z,15.10
2022-11-26T03:47:01.674Z,16.80
2022-11-26T03:48:01.401Z,16.80
2022-11-26T03:49:01.813Z,16.80
2022-11-26T03:50:01.542Z,16.80
2022-11-26T03:51:01.480Z,16.80
2022-11-26T03:52:01.961Z,13.70
2022-11-26T03:53:01.906Z,13.70
2022-11-26T03:54:02.170Z,13.70
2022-11-26T03:55:01.788Z,13.70
2022-11-26T03:56:01.905Z,13.70
2022-11-26T03:57:01.997Z,15.10
2022-11-26T03:58:01.965Z,15.10
2022-11-26T03:59:01.824Z,15.10
2022-11-26T04:00:01.986Z,15.10
2022-11-26T04:01:02.241Z,15.10
2022-11-26T04:02:02.661Z,18.90
2022-11-26T04:03:02.890Z,18.90
2022-11-26T04:04:02.491Z,18.90
2022-11-26T04:05:02.352Z,18.90
2022-11-26T04:06:02.254Z,18.90
2022-11-26T04:07:02.435Z,14.20
2022-11-26T04:08:02.623Z,14.20
2022-11-26T04:09:02.655Z,14.20
2022-11-26T04:10:02.443Z,14.20
2022-11-26T04:11:02.945Z,14.20
2022-11-26T04:12:02.737Z,13.20
2022-11-26T04:13:02.501Z,13.20
2022-11-26T04:14:02.477Z,13.20
2022-11-26T04:15:02.509Z,13.20
2022-11-26T04:16:02.995Z,13.20
2022-11-26T04:17:02.847Z,12.70
2022-11-26T04:18:02.877Z,12.70
2022-11-26T04:19:02.585Z,12.70
2022-11-26T04:20:02.774Z,12.70
2022-11-26T04:21:03.104Z,12.70
2022-11-26T04:22:02.406Z,15.40
2022-11-26T04:23:02.251Z,15.40
2022-11-26T04:24:02.124Z,15.40
2022-11-26T04:25:02.145Z,15.40
2022-11-26T04:26:02.661Z,15.40
2022-11-26T04:27:03.157Z,13.80
2022-11-26T04:28:03.030Z,13.80
2022-11-26T04:29:02.861Z,13.80
2022-11-26T04:30:03.152Z,13.80
2022-11-26T04:31:02.675Z,13.80
2022-11-26T04:32:02.371Z,12.80
2022-11-26T04:33:01.982Z,12.80
2022-11-26T04:34:02.270Z,12.80
2022-11-26T04:35:02.087Z,12.80
2022-11-26T04:36:02.223Z,12.80
2022-11-26T04:37:02.681Z,10.60
2022-11-26T04:38:02.555Z,10.60
2022-11-26T04:39:02.950Z,10.60
2022-11-26T04:40:02.497Z,10.60
2022-11-26T04:41:02.396Z,10.60
2022-11-26T04:42:02.398Z,14.20
2022-11-26T04:43:02.213Z,14.20
2022-11-26T04:44:01.913Z,14.20
2022-11-26T04:45:02.002Z,14.20
2022-11-26T04:46:02.125Z,14.20
2022-11-26T04:47:02.413Z,20.40
2022-11-26T04:48:02.402Z,20.40
2022-11-26T04:49:02.297Z,20.40
2022-11-26T04:50:02.120Z,20.40
2022-11-26T04:51:02.358Z,20.40
2022-11-26T04:52:02.702Z,13.50
2022-11-26T04:53:02.592Z,13.50
2022-11-26T04:54:03.758Z,13.50
2022-11-26T04:55:02.548Z,13.50
2022-11-26T04:56:02.845Z,13.50
2022-11-26T04:57:01.941Z,11.50
2022-11-26T04:58:01.849Z,11.50
2022-11-26T04:59:01.750Z,11.50
2022-11-26T05:00:02.278Z,11.50
2022-11-26T05:01:02.289Z,11.50
2022-11-26T05:02:02.945Z,14.00
2022-11-26T05:03:02.784Z,14.00
2022-11-26T05:04:03.370Z,14.00
2022-11-26T05:05:03.010Z,14.00
2022-11-26T05:06:03.044Z,14.00
2022-11-26T05:07:02.528Z,13.30
2022-11-26T05:08:02.933Z,13.30
2022-11-26T05:09:02.598Z,13.30
2022-11-26T05:10:02.387Z,13.30
2022-11-26T05:11:02.835Z,13.30
2022-11-26T05:12:02.927Z,17.30
2022-11-26T05:13:03.108Z,17.30
2022-11-26T05:14:03.120Z,17.30
2022-11-26T05:15:03.289Z,17.30
2022-11-26T05:16:02.886Z,17.30
2022-11-26T05:17:02.561Z,12.80
2022-11-26T05:18:02.870Z,12.80
2022-11-26T05:19:02.391Z,12.80
2022-11-26T05:20:02.561Z,12.80
2022-11-26T05:21:02.928Z,12.80
2022-11-26T05:22:03.426Z,11.70
2022-11-26T05:23:03.371Z,11.70
2022-11-26T05:24:03.290Z,11.70
2022-11-26T05:25:03.357Z,11.70
2022-11-26T05:26:03.334Z,11.70
2022-11-26T05:27:02.891Z,9.80
2022-11-26T05:28:02.509Z,9.80
2022-11-26T05:29:02.955Z,9.80
2022-11-26T05:30:02.464Z,9.80
2022-11-26T05:31:02.869Z,9.80
2022-11-26T05:32:03.080Z,9.20
2022-11-26T05:33:02.753Z,9.20
2022-11-26T05:34:02.560Z,9.20
2022-11-26T05:35:02.591Z,9.20
2022-11-26T05:36:02.963Z,9.20
2022-11-26T05:37:03.382Z,9.70
2022-11-26T05:38:02.903Z,9.70
2022-11-26T05:39:02.876Z,9.70
2022-11-26T05:40:02.789Z,9.70
2022-11-26T05:41:03.262Z,9.70
2022-11-26T05:42:07.686Z,11.10
2022-11-26T05:43:02.259Z,11.10
2022-11-26T05:44:02.080Z,11.10
2022-11-26T05:45:02.119Z,11.10
2022-11-26T05:46:01.920Z,11.10
2022-11-26T05:47:03.081Z,11.50
2022-11-26T05:48:02.614Z,11.50
2022-11-26T05:49:02.632Z,11.50
2022-11-26T05:50:03.084Z,11.50
2022-11-26T05:51:02.963Z,11.50
2022-11-26T05:52:02.101Z,10.50
2022-11-26T05:53:02.663Z,10.50
2022-11-26T05:54:02.253Z,10.50
2022-11-26T05:55:02.080Z,10.50
2022-11-26T05:56:02.109Z,10.50
2022-11-26T05:57:02.895Z,11.60
2022-11-26T05:58:02.689Z,11.60
2022-11-26T05:59:02.435Z,11.60
2022-11-26T06:00:02.667Z,11.60
2022-11-26T06:01:02.936Z,11.60
2022-11-26T06:02:02.788Z,11.10
2022-11-26T06:03:03.017Z,11.10
2022-11-26T06:04:03.215Z,11.10
2022-11-26T06:05:03.145Z,11.10
2022-11-26T06:06:02.986Z,11.10
2022-11-26T06:07:02.754Z,13.60
2022-11-26T06:08:03.044Z,13.60
2022-11-26T06:09:03.214Z,13.60
2022-11-26T06:10:02.712Z,13.60
2022-11-26T06:11:02.936Z,13.60
2022-11-26T06:12:02.820Z,12.60
2022-11-26T06:13:02.975Z,12.60
2022-11-26T06:14:02.856Z,12.60
2022-11-26T06:15:03.071Z,12.60
2022-11-26T06:16:03.368Z,12.60
2022-11-26T06:17:02.825Z,13.60
2022-11-26T06:18:03.403Z,13.60
2022-11-26T06:19:02.902Z,13.60
2022-11-26T06:20:03.424Z,13.60
2022-11-26T06:21:02.815Z,13.60
2022-11-26T06:22:02.570Z,10.50
2022-11-26T06:23:03.029Z,10.50
2022-11-26T06:24:02.650Z,10.50
2022-11-26T06:25:02.913Z,10.50
2022-11-26T06:26:02.678Z,10.50
2022-11-26T06:27:03.021Z,11.30
2022-11-26T06:28:02.636Z,11.30
2022-11-26T06:29:02.505Z,11.30
2022-11-26T06:30:02.766Z,11.30
2022-11-26T06:31:02.467Z,11.30
2022-11-26T06:32:02.002Z,11.80
2022-11-26T06:33:02.252Z,11.80
2022-11-26T06:34:02.441Z,11.80
2022-11-26T06:35:02.021Z,11.80
2022-11-26T06:36:02.105Z,11.80
2022-11-26T06:37:02.429Z,12.30
2022-11-26T06:38:01.825Z,12.30
2022-11-26T06:39:02.005Z,12.30
2022-11-26T06:40:02.447Z,12.30
2022-11-26T06:41:01.903Z,12.30
2022-11-26T06:42:02.611Z,12.00
2022-11-26T06:43:02.848Z,12.00
2022-11-26T06:44:02.824Z,12.00
2022-11-26T06:45:02.611Z,12.00
2022-11-26T06:46:02.557Z,10.70
2022-11-26T06:47:02.107Z,10.70
2022-11-26T06:48:01.955Z,10.70
2022-11-26T06:49:02.178Z,10.70
2022-11-26T06:50:05.214Z,10.70
2022-11-26T06:51:01.961Z,11.60
2022-11-26T06:52:02.435Z,11.60
2022-11-26T06:53:02.262Z,11.60
2022-11-26T06:54:02.396Z,11.60
2022-11-26T06:55:02.369Z,11.60
2022-11-26T06:56:02.402Z,10.40
2022-11-26T06:57:01.909Z,10.40
2022-11-26T06:58:01.833Z,10.40
2022-11-26T06:59:02.303Z,10.40
2022-11-26T07:00:02.056Z,10.40
2022-11-26T07:01:02.086Z,11.90
2022-11-26T07:02:02.609Z,11.90
2022-11-26T07:03:02.374Z,11.90
2022-11-26T07:04:02.345Z,11.90
2022-11-26T07:05:02.640Z,11.90
2022-11-26T07:06:02.264Z,16.00
2022-11-26T07:07:02.865Z,16.00
2022-11-26T07:08:02.656Z,16.00
2022-11-26T07:09:02.701Z,16.00
2022-11-26T07:10:02.611Z,16.00
2022-11-26T07:11:03.195Z,15.60
2022-11-26T07:12:02.537Z,15.60
2022-11-26T07:13:02.345Z,15.60
2022-11-26T07:14:02.200Z,15.60
2022-11-26T07:15:02.351Z,15.60
2022-11-26T07:16:02.786Z,20.00
2022-11-26T07:17:02.219Z,20.00
2022-11-26T07:18:02.153Z,20.00
2022-11-26T07:19:03.186Z,20.00
2022-11-26T07:20:01.785Z,20.00
2022-11-26T07:21:02.158Z,19.90
2022-11-26T07:22:02.060Z,19.90
2022-11-26T07:23:02.383Z,19.90
2022-11-26T07:24:02.660Z,19.90
2022-11-26T07:25:02.005Z,19.90
2022-11-26T07:26:02.352Z,33.10
2022-11-26T07:27:02.850Z,33.10
2022-11-26T07:28:02.488Z,33.10
2022-11-26T07:29:02.285Z,33.10
2022-11-26T07:30:02.395Z,33.10
2022-11-26T07:31:02.400Z,22.40
2022-11-26T07:32:02.749Z,22.40
2022-11-26T07:33:02.754Z,22.40
2022-11-26T07:34:02.672Z,22.40
2022-11-26T07:35:02.848Z,22.40
2022-11-26T07:36:02.458Z,20.10
2022-11-26T07:37:03.105Z,20.10
2022-11-26T07:38:03.204Z,20.10
2022-11-26T07:39:02.878Z,20.10
2022-11-26T07:40:02.795Z,20.10
2022-11-26T07:41:02.582Z,15.30
2022-11-26T07:42:01.848Z,15.30
2022-11-26T07:43:01.754Z,15.30
2022-11-26T07:44:02.333Z,15.30
2022-11-26T07:45:02.215Z,15.30
2022-11-26T07:46:02.124Z,22.00
2022-11-26T07:47:02.600Z,22.00
2022-11-26T07:48:02.523Z,22.00
2022-11-26T07:49:02.442Z,22.00
2022-11-26T07:50:02.171Z,22.00
2022-11-26T07:51:02.751Z,23.20
2022-11-26T07:52:02.256Z,23.20
2022-11-26T07:53:02.344Z,23.20
2022-11-26T07:54:01.796Z,23.20
2022-11-26T07:55:02.311Z,23.20
2022-11-26T07:56:01.720Z,16.50
2022-11-26T07:57:02.862Z,16.50
2022-11-26T07:58:02.558Z,16.50
2022-11-26T07:59:02.371Z,16.50
2022-11-26T08:00:02.441Z,16.50
2022-11-26T08:01:02.474Z,16.30
2022-11-26T08:02:02.722Z,16.30
2022-11-26T08:03:03.249Z,16.30
2022-11-26T08:04:03.007Z,16.30
2022-11-26T08:05:02.917Z,16.30
2022-11-26T08:06:02.857Z,16.90
2022-11-26T08:07:03.173Z,16.90
2022-11-26T08:08:02.718Z,16.90
2022-11-26T08:09:03.238Z,16.90
2022-11-26T08:10:02.892Z,16.90
2022-11-26T08:11:02.651Z,16.30
2022-11-26T08:12:02.803Z,16.30
2022-11-26T08:13:02.201Z,16.30
2022-11-26T08:14:02.552Z,16.30
2022-11-26T08:15:02.465Z,16.30
2022-11-26T08:16:02.579Z,18.10
2022-11-26T08:17:02.555Z,18.10
2022-11-26T08:18:02.666Z,18.10
2022-11-26T08:19:02.555Z,18.10
2022-11-26T08:20:02.458Z,18.10
2022-11-26T08:21:02.691Z,15.60
2022-11-26T08:22:03.165Z,15.60
2022-11-26T08:23:03.037Z,15.60
2022-11-26T08:24:03.114Z,15.60
2022-11-26T08:25:02.940Z,15.60
2022-11-26T08:26:22.773Z,18.60
2022-11-26T08:27:02.760Z,18.60
2022-11-26T08:28:02.694Z,18.60
2022-11-26T08:29:02.937Z,18.60
2022-11-26T08:30:02.434Z,18.60
2022-11-26T08:31:02.416Z,32.30
2022-11-26T08:32:03.125Z,32.30
2022-11-26T08:33:02.835Z,32.30
2022-11-26T08:34:02.718Z,32.30
2022-11-26T08:35:02.784Z,32.30
2022-11-26T08:36:07.645Z,43.20
2022-11-26T08:37:02.694Z,43.20
2022-11-26T08:38:02.973Z,43.20
2022-11-26T08:39:02.963Z,43.20
2022-11-26T08:40:02.921Z,43.20
2022-11-26T08:41:03.022Z,50.50
2022-11-26T08:42:02.216Z,50.50
2022-11-26T08:43:02.261Z,50.50
2022-11-26T08:44:07.452Z,50.50
2022-11-26T08:45:02.650Z,50.50
2022-11-26T08:46:02.455Z,25.20
2022-11-26T08:47:02.195Z,25.20
2022-11-26T08:48:02.434Z,25.20
2022-11-26T08:49:02.366Z,25.20
2022-11-26T08:50:02.150Z,25.20
2022-11-26T08:51:02.810Z,37.00
2022-11-26T08:52:03.055Z,37.00
2022-11-26T08:53:03.367Z,37.00
2022-11-26T08:54:03.100Z,37.00
2022-11-26T08:55:03.281Z,37.00
2022-11-26T08:56:03.073Z,20.50
2022-11-26T08:57:02.810Z,20.50
2022-11-26T08:58:03.424Z,20.50
2022-11-26T08:59:03.270Z,20.50
2022-11-26T09:00:02.994Z,20.50
2022-11-26T09:01:02.891Z,14.70
2022-11-26T09:02:02.454Z,14.70
2022-11-26T09:03:02.450Z,14.70
2022-11-26T09:04:02.430Z,14.70
2022-11-26T09:05:02.812Z,14.70
2022-11-26T09:06:02.840Z,15.10
2022-11-26T09:07:02.021Z,15.10
2022-11-26T09:08:02.497Z,15.10
2022-11-26T09:09:02.231Z,15.10
2022-11-26T09:10:02.000Z,15.10
2022-11-26T09:11:01.923Z,24.50
2022-11-26T09:12:02.654Z,24.50
2022-11-26T09:13:02.568Z,24.50
2022-11-26T09:14:02.826Z,24.50
2022-11-26T09:15:02.394Z,24.50
2022-11-26T09:16:02.550Z,19.70
2022-11-26T09:17:02.679Z,19.70
2022-11-26T09:18:02.558Z,19.70
2022-11-26T09:19:03.056Z,19.70
2022-11-26T09:20:03.108Z,19.70
2022-11-26T09:21:02.862Z,18.20
2022-11-26T09:22:01.948Z,18.20
2022-11-26T09:23:02.094Z,18.20
2022-11-26T09:24:02.217Z,18.20
2022-11-26T09:25:02.104Z,18.20
2022-11-26T09:26:02.109Z,17.70
2022-11-26T09:27:07.507Z,17.70
2022-11-26T09:28:02.733Z,17.70
2022-11-26T09:29:02.584Z,17.70
2022-11-26T09:30:02.952Z,17.70
2022-11-26T09:31:03.154Z,21.30
2022-11-26T09:32:22.568Z,21.30
2022-11-26T09:33:02.245Z,21.30
2022-11-26T09:34:02.406Z,21.30
2022-11-26T09:35:02.592Z,21.30
2022-11-26T09:36:02.193Z,18.70
2022-11-26T09:37:02.834Z,18.70
2022-11-26T09:38:02.883Z,18.70
2022-11-26T09:39:02.846Z,18.70
2022-11-26T09:40:02.784Z,18.70
2022-11-26T09:41:03.031Z,15.80
2022-11-26T09:42:02.051Z,15.80
2022-11-26T09:43:02.318Z,15.80
2022-11-26T09:44:02.283Z,15.80
2022-11-26T09:45:02.213Z,15.80
2022-11-26T09:46:02.201Z,14.70
2022-11-26T09:47:11.896Z,14.70
2022-11-26T09:48:01.986Z,14.70
2022-11-26T09:49:04.273Z,14.70
2022-11-26T09:50:02.072Z,14.70
2022-11-26T09:51:02.004Z,16.00
2022-11-26T09:52:02.495Z,16.00
2022-11-26T09:53:02.498Z,16.00
2022-11-26T09:54:02.461Z,16.00
2022-11-26T09:55:02.865Z,16.00
2022-11-26T09:56:02.877Z,15.10
2022-11-26T09:57:02.033Z,15.10
2022-11-26T09:58:02.244Z,15.10
2022-11-26T09:59:02.111Z,15.10
2022-11-26T10:00:02.120Z,15.10
2022-11-26T10:01:02.081Z,22.40
2022-11-26T10:02:02.386Z,22.40
2022-11-26T10:03:02.149Z,22.40
2022-11-26T10:04:02.327Z,22.40
2022-11-26T10:05:02.595Z,22.40
2022-11-26T10:06:02.216Z,22.90
2022-11-26T10:07:02.517Z,22.90
2022-11-26T10:08:02.606Z,22.90
2022-11-26T10:09:02.473Z,22.90
2022-11-26T10:10:02.500Z,22.90
2022-11-26T10:11:04.206Z,14.70
2022-11-26T10:12:02.629Z,14.70
2022-11-26T10:13:18.631Z,14.70
2022-11-26T10:14:02.967Z,14.70
2022-11-26T10:15:02.813Z,14.70
2022-11-26T10:16:02.730Z,14.50
2022-11-26T10:17:02.286Z,14.50
2022-11-26T10:18:02.027Z,14.50
2022-11-26T10:19:02.033Z,14.50
2022-11-26T10:20:02.446Z,14.50
2022-11-26T10:21:02.446Z,13.60
2022-11-26T10:22:02.478Z,13.60
2022-11-26T10:23:02.222Z,13.60
2022-11-26T10:24:02.404Z,13.60
2022-11-26T10:25:02.588Z,13.60
2022-11-26T10:26:02.583Z,16.00
2022-11-26T10:27:03.017Z,16.00
2022-11-26T10:28:02.982Z,16.00
2022-11-26T10:29:03.093Z,16.00
2022-11-26T10:30:02.797Z,16.00
2022-11-26T10:31:02.826Z,18.20
2022-11-26T10:32:02.671Z,18.20
2022-11-26T10:33:02.487Z,18.20
2022-11-26T10:34:02.520Z,18.20
2022-11-26T10:35:02.450Z,18.20
2022-11-26T10:36:02.447Z,19.00
2022-11-26T10:37:03.169Z,19.00
2022-11-26T10:38:02.868Z,19.00
2022-11-26T10:39:02.987Z,19.00
2022-11-26T10:40:07.079Z,19.00
2022-11-26T10:41:02.895Z,23.40
2022-11-26T10:42:02.509Z,23.40
2022-11-26T10:43:02.424Z,23.40
2022-11-26T10:44:02.404Z,23.40
2022-11-26T10:45:02.444Z,23.40
2022-11-26T10:46:02.503Z,14.90
2022-11-26T10:47:02.745Z,14.90
2022-11-26T10:48:02.672Z,14.90
2022-11-26T10:49:02.442Z,14.90
2022-11-26T10:50:14.410Z,14.90
2022-11-26T10:51:02.371Z,13.50
2022-11-26T10:52:02.898Z,13.50
2022-11-26T10:53:02.454Z,13.50
2022-11-26T10:54:02.944Z,13.50
2022-11-26T10:55:02.497Z,13.50
2022-11-26T10:56:02.610Z,16.00
2022-11-26T10:57:02.551Z,16.00
2022-11-26T10:58:02.257Z,16.00
2022-11-26T10:59:02.317Z,16.00
2022-11-26T11:00:01.967Z,16.00
2022-11-26T11:01:02.495Z,17.10
2022-11-26T11:02:03.022Z,17.10
2022-11-26T11:03:02.754Z,17.10
2022-11-26T11:04:09.994Z,17.10
2022-11-26T11:05:02.688Z,17.10
2022-11-26T11:06:02.664Z,17.80
2022-11-26T11:07:05.204Z,17.80
2022-11-26T11:08:01.987Z,17.80
2022-11-26T11:09:01.840Z,17.80
2022-11-26T11:10:02.331Z,17.80
2022-11-26T11:11:01.857Z,15.40
2022-11-26T11:12:02.406Z,15.40
2022-11-26T11:13:02.018Z,15.40
2022-11-26T11:14:01.765Z,15.40
2022-11-26T11:15:02.366Z,15.40
2022-11-26T11:16:02.124Z,15.30
2022-11-26T11:17:02.794Z,15.30
2022-11-26T11:18:02.447Z,15.30
2022-11-26T11:19:02.587Z,15.30
2022-11-26T11:20:02.349Z,15.30
2022-11-26T11:21:02.375Z,16.00
2022-11-26T11:22:01.695Z,16.00
2022-11-26T11:23:01.843Z,16.00
2022-11-26T11:24:08.535Z,16.00
2022-11-26T11:25:02.109Z,16.00
2022-11-26T11:26:02.185Z,16.70
2022-11-26T11:27:02.015Z,16.70
2022-11-26T11:28:02.242Z,16.70
2022-11-26T11:29:02.194Z,16.70
2022-11-26T11:30:02.363Z,16.70
2022-11-26T11:31:02.560Z,17.80
2022-11-26T11:32:02.455Z,17.80
2022-11-26T11:33:02.730Z,17.80
2022-11-26T11:34:02.623Z,17.80
2022-11-26T11:35:02.559Z,17.80
2022-11-26T11:36:02.444Z,15.80
2022-11-26T11:37:02.741Z,15.80
2022-11-26T11:38:02.056Z,15.80
2022-11-26T11:39:01.957Z,15.80
2022-11-26T11:40:01.949Z,15.80
2022-11-26T11:41:01.942Z,15.60
2022-11-26T11:42:02.030Z,15.60
2022-11-26T11:43:02.787Z,15.60
2022-11-26T11:44:02.765Z,15.60
2022-11-26T11:45:02.283Z,15.60
2022-11-26T11:46:02.763Z,17.10
2022-11-26T11:47:02.686Z,17.10
2022-11-26T11:48:02.408Z,17.10
2022-11-26T11:49:02.358Z,17.10
2022-11-26T11:50:02.021Z,17.10
2022-11-26T11:51:01.915Z,15.30
2022-11-26T11:52:02.310Z,15.30
2022-11-26T11:53:02.346Z,15.30
2022-11-26T11:54:02.240Z,15.30
2022-11-26T11:55:02.231Z,15.30
2022-11-26T11:56:02.995Z,14.30
2022-11-26T11:57:02.293Z,14.30
2022-11-26T11:58:01.665Z,14.30
2022-11-26T11:59:02.088Z,14.30
2022-11-26T12:00:02.209Z,14.30
2022-11-26T12:01:01.660Z,20.20
2022-11-26T12:02:01.944Z,20.20
2022-11-26T12:03:02.988Z,20.20
2022-11-26T12:04:03.633Z,20.20
2022-11-26T12:05:02.661Z,20.20
2022-11-26T12:06:02.581Z,20.20
2022-11-26T12:07:02.962Z,20.20
2022-11-26T12:08:02.543Z,20.20
2022-11-26T12:09:02.793Z,20.20
2022-11-26T12:10:02.398Z,20.20
2022-11-26T12:11:02.412Z,14.40
2022-11-26T12:12:02.832Z,14.40
2022-11-26T12:13:02.699Z,14.40
2022-11-26T12:14:02.563Z,14.40
2022-11-26T12:15:03.139Z,14.40
2022-11-26T12:16:02.924Z,18.80
2022-11-26T12:17:03.175Z,18.80
2022-11-26T12:18:03.095Z,18.80
2022-11-26T12:19:03.277Z,18.80
2022-11-26T12:20:02.708Z,18.80
2022-11-26T12:21:02.653Z,17.30
2022-11-26T12:22:02.622Z,17.30
2022-11-26T12:23:02.431Z,17.30
2022-11-26T12:24:02.358Z,17.30
2022-11-26T12:25:02.138Z,17.30
2022-11-26T12:26:02.201Z,14.40
2022-11-26T12:27:02.142Z,14.40
2022-11-26T12:28:02.985Z,14.40
2022-11-26T12:29:02.920Z,14.40
2022-11-26T12:30:03.029Z,14.40
2022-11-26T12:31:03.020Z,17.20
2022-11-26T12:32:02.704Z,17.20
2022-11-26T12:33:02.888Z,17.20
2022-11-26T12:34:08.405Z,17.20
2022-11-26T12:35:03.192Z,17.20
2022-11-26T12:36:03.070Z,16.90
2022-11-26T12:37:03.093Z,16.90
2022-11-26T12:38:02.534Z,16.90
2022-11-26T12:39:02.273Z,16.90
2022-11-26T12:40:02.735Z,16.90
2022-11-26T12:41:02.161Z,17.10
2022-11-26T12:42:02.201Z,17.10
2022-11-26T12:43:02.992Z,17.10
2022-11-26T12:44:02.836Z,17.10
2022-11-26T12:45:02.461Z,17.10
2022-11-26T12:46:02.901Z,14.90
2022-11-26T12:47:02.940Z,14.90
2022-11-26T12:48:02.779Z,14.90
2022-11-26T12:49:02.781Z,14.90
2022-11-26T12:50:02.576Z,14.90
2022-11-26T12:51:03.056Z,21.10
2022-11-26T12:52:02.969Z,21.10
2022-11-26T12:53:02.895Z,21.10